San Juan Capistrano, California
Current Conditions -  °F | °C
As of 4:53 PM on Tuesday 21 Oct 2014 (Local Time) from KSNA Reporting Station
Scattered Clouds Scattered Clouds  
Wind Chill: 24°   Ceiling: Unl
Heat Index: 24°   Visibility: 10mi
Dew Point: 15°   Wind: 7mph
Humidity: 57%   Direction: NA
Pressure: 29.83"   Gusts: NA
Location:  33.5°N, 117.66°W
Report Text: KSNA 212353Z VRB06KT 10SM SCT250 24/15 A2983 RMK AO2 SLP101 T02390150 10261 20222 56006 $
Loading
Personal Weather Stations






























Interactive Weather Map
Tropical Storm Tracking
New forecast layout! Learn more

10-Day Weather Forecast

Advertisements
Track Severe Weather on mobile